sensor_id;sensor_type;location;lat;lon;timestamp;pressure;altitude;pressure_sealevel;temperature;humidity
71105;BME280;58760;48.716;8.962;2023-08-12T00:01:11;96798.44;;;19.28;90.05
71105;BME280;58760;48.716;8.962;2023-08-12T00:07:53;96789.59;;;19.21;91.50
71105;BME280;58760;48.716;8.962;2023-08-12T00:14:25;96784.44;;;19.19;90.48
71105;BME280;58760;48.716;8.962;2023-08-12T00:17:23;96781.91;;;19.00;92.07
71105;BME280;58760;48.716;8.962;2023-08-12T00:20:33;96773.56;;;19.08;92.02
71105;BME280;58760;48.716;8.962;2023-08-12T00:23:32;96774.06;;;18.98;92.75
71105;BME280;58760;48.716;8.962;2023-08-12T00:26:20;96768.69;;;18.98;92.65
71105;BME280;58760;48.716;8.962;2023-08-12T00:29:06;96771.38;;;18.98;92.64
71105;BME280;58760;48.716;8.962;2023-08-12T00:32:00;96774.13;;;18.92;91.50
71105;BME280;58760;48.716;8.962;2023-08-12T00:35:03;96771.31;;;18.80;93.64
71105;BME280;58760;48.716;8.962;2023-08-12T00:38:14;96764.06;;;18.80;93.48
71105;BME280;58760;48.716;8.962;2023-08-12T00:41:03;96771.53;;;18.78;93.73
71105;BME280;58760;48.716;8.962;2023-08-12T00:44:33;96762.47;;;18.73;94.47
71105;BME280;58760;48.716;8.962;2023-08-12T00:47:31;96761.22;;;18.75;95.21
71105;BME280;58760;48.716;8.962;2023-08-12T00:50:39;96754.19;;;18.74;94.86
71105;BME280;58760;48.716;8.962;2023-08-12T00:53:26;96755.41;;;18.78;93.98
71105;BME280;58760;48.716;8.962;2023-08-12T00:56:18;96757.22;;;18.85;93.50
71105;BME280;58760;48.716;8.962;2023-08-12T00:59:34;96762.19;;;18.81;93.65
71105;BME280;58760;48.716;8.962;2023-08-12T01:02:31;96749.41;;;18.76;93.28
71105;BME280;58760;48.716;8.962;2023-08-12T01:05:32;96763.91;;;18.75;93.51
71105;BME280;58760;48.716;8.962;2023-08-12T02:11:27;96715.16;;;18.65;93.88
71105;BME280;58760;48.716;8.962;2023-08-12T02:14:39;96718.25;;;18.69;93.01
71105;BME280;58760;48.716;8.962;2023-08-12T02:17:39;96716.38;;;18.69;93.72
71105;BME280;58760;48.716;8.962;2023-08-12T02:20:32;96698.59;;;18.68;93.34
71105;BME280;58760;48.716;8.962;2023-08-12T02:23:33;96703.78;;;18.63;93.84
71105;BME280;58760;48.716;8.962;2023-08-12T02:26:55;96698.59;;;18.68;93.34
71105;BME280;58760;48.716;8.962;2023-08-12T02:30:10;96697.19;;;18.66;93.97
71105;BME280;58760;48.716;8.962;2023-08-12T02:33:08;96699.25;;;18.64;94.51
71105;BME280;58760;48.716;8.962;2023-08-12T02:36:06;96688.94;;;18.61;93.60
71105;BME280;58760;48.716;8.962;2023-08-12T02:39:06;96689.31;;;18.64;93.68
71105;BME280;58760;48.716;8.962;2023-08-12T02:42:01;96687.84;;;18.68;94.36
71105;BME280;58760;48.716;8.962;2023-08-12T02:45:39;96704.97;;;18.74;95.13
71105;BME280;58760;48.716;8.962;2023-08-12T02:48:36;96702.28;;;18.74;94.52
71105;BME280;58760;48.716;8.962;2023-08-12T02:51:47;96697.72;;;18.74;93.27
71105;BME280;58760;48.716;8.962;2023-08-12T02:55:55;96679.16;;;18.66;94.44
71105;BME280;58760;48.716;8.962;2023-08-12T03:06:52;96676.47;;;18.66;92.73
71105;BME280;58760;48.716;8.962;2023-08-12T03:10:13;96678.38;;;18.66;92.90
71105;BME280;58760;48.716;8.962;2023-08-12T03:13:02;96670.88;;;18.68;92.73
71105;BME280;58760;48.716;8.962;2023-08-12T03:16:43;96671.53;;;18.63;92.21
71105;BME280;58760;48.716;8.962;2023-08-12T03:20:37;96669.28;;;18.60;92.72
71105;BME280;58760;48.716;8.962;2023-08-12T03:23:33;96669.28;;;18.60;93.50
71105;BME280;58760;48.716;8.962;2023-08-12T03:26:36;96667.66;;;18.59;93.17
71105;BME280;58760;48.716;8.962;2023-08-12T03:29:45;96673.25;;;18.58;93.21
71105;BME280;58760;48.716;8.962;2023-08-12T03:32:41;96676.97;;;18.57;94.07
71105;BME280;58760;48.716;8.962;2023-08-12T03:39:39;96666.34;;;18.68;93.08
71105;BME280;58760;48.716;8.962;2023-08-12T03:43:09;96661.78;;;18.69;94.32
71105;BME280;58760;48.716;8.962;2023-08-12T03:49:44;96668.34;;;18.73;93.41
71105;BME280;58760;48.716;8.962;2023-08-12T03:53:02;96671.66;;;18.75;94.65
71105;BME280;58760;48.716;8.962;2023-08-12T04:03:33;96660.03;;;18.81;93.25
71105;BME280;58760;48.716;8.962;2023-08-12T04:07:12;96662.47;;;18.83;95.15
71105;BME280;58760;48.716;8.962;2023-08-12T04:10:25;96665.78;;;18.85;93.84
71105;BME280;58760;48.716;8.962;2023-08-12T04:13:18;96661.00;;;18.87;93.76
71105;BME280;58760;48.716;8.962;2023-08-12T04:16:27;96673.16;;;18.89;93.81
71105;BME280;58760;48.716;8.962;2023-08-12T04:19:43;96677.50;;;18.90;93.29
71105;BME280;58760;48.716;8.962;2023-08-12T04:22:40;96682.81;;;18.97;93.20
71105;BME280;58760;48.716;8.962;2023-08-12T04:26:06;96680.31;;;19.02;91.64
71105;BME280;58760;48.716;8.962;2023-08-12T04:28:57;96684.81;;;19.08;91.06
71105;BME280;58760;48.716;8.962;2023-08-12T04:31:44;96668.34;;;19.16;91.58
71105;BME280;58760;48.716;8.962;2023-08-12T04:34:38;96669.69;;;19.07;98.10
71105;BME280;58760;48.716;8.962;2023-08-12T04:37:33;96670.13;;;19.04;99.04
71105;BME280;58760;48.716;8.962;2023-08-12T04:40:37;96681.28;;;19.07;98.00
71105;BME280;58760;48.716;8.962;2023-08-12T04:43:36;96678.81;;;19.06;95.59
71105;BME280;58760;48.716;8.962;2023-08-12T04:50:07;96674.34;;;19.18;98.43
71105;BME280;58760;48.716;8.962;2023-08-12T04:52:58;96676.44;;;19.16;99.87
71105;BME280;58760;48.716;8.962;2023-08-12T04:56:07;96677.03;;;19.18;98.44
71105;BME280;58760;48.716;8.962;2023-08-12T04:58:59;96660.06;;;19.17;100.00
71105;BME280;58760;48.716;8.962;2023-08-12T05:02:31;96671.22;;;19.21;100.00
71105;BME280;58760;48.716;8.962;2023-08-12T05:12:44;96667.84;;;19.25;99.20
71105;BME280;58760;48.716;8.962;2023-08-12T05:19:09;96659.69;;;19.32;98.07
71105;BME280;58760;48.716;8.962;2023-08-12T05:22:04;96664.03;;;19.33;100.00
71105;BME280;58760;48.716;8.962;2023-08-12T05:25:05;96674.41;;;19.29;100.00
71105;BME280;58760;48.716;8.962;2023-08-12T05:28:18;96669.41;;;19.33;100.00
71105;BME280;58760;48.716;8.962;2023-08-12T05:31:12;96666.47;;;19.34;100.00
71105;BME280;58760;48.716;8.962;2023-08-12T05:34:32;96660.88;;;19.36;100.00
71105;BME280;58760;48.716;8.962;2023-08-12T05:37:48;96665.00;;;19.39;100.00
71105;BME280;58760;48.716;8.962;2023-08-12T05:40:46;96677.81;;;19.43;100.00
71105;BME280;58760;48.716;8.962;2023-08-12T05:43:35;96676.53;;;19.46;100.00
71105;BME280;58760;48.716;8.962;2023-08-12T05:46:45;96669.81;;;19.55;100.00
71105;BME280;58760;48.716;8.962;2023-08-12T05:53:10;96670.50;;;19.50;100.00
71105;BME280;58760;48.716;8.962;2023-08-12T05:56:07;96665.25;;;19.55;100.00
71105;BME280;58760;48.716;8.962;2023-08-12T05:59:12;96671.59;;;19.61;99.39
71105;BME280;58760;48.716;8.962;2023-08-12T06:02:25;96671.13;;;19.64;99.88
71105;BME280;58760;48.716;8.962;2023-08-12T06:08:46;96672.25;;;19.74;100.00
71105;BME280;58760;48.716;8.962;2023-08-12T06:11:44;96664.16;;;19.74;100.00
71105;BME280;58760;48.716;8.962;2023-08-12T06:14:43;96670.53;;;19.80;100.00
71105;BME280;58760;48.716;8.962;2023-08-12T06:17:46;96663.78;;;19.89;99.23
71105;BME280;58760;48.716;8.962;2023-08-12T06:20:57;96668.16;;;20.02;98.75
71105;BME280;58760;48.716;8.962;2023-08-12T06:24:06;96666.69;;;20.17;98.67
71105;BME280;58760;48.716;8.962;2023-08-12T06:27:10;96668.56;;;20.35;98.27
71105;BME280;58760;48.716;8.962;2023-08-12T06:30:19;96652.06;;;20.55;97.56
71105;BME280;58760;48.716;8.962;2023-08-12T06:33:33;96659.94;;;20.79;93.97
71105;BME280;58760;48.716;8.962;2023-08-12T06:36:42;96657.72;;;21.00;93.31
71105;BME280;58760;48.716;8.962;2023-08-12T06:39:38;96660.56;;;21.16;89.29
71105;BME280;58760;48.716;8.962;2023-08-12T06:42:31;96660.44;;;21.23;88.80
71105;BME280;58760;48.716;8.962;2023-08-12T06:45:32;96658.31;;;21.25;89.79
71105;BME280;58760;48.716;8.962;2023-08-12T06:48:42;96660.19;;;21.24;92.80
71105;BME280;58760;48.716;8.962;2023-08-12T06:51:28;96656.66;;;21.24;91.95
71105;BME280;58760;48.716;8.962;2023-08-12T06:54:20;96655.47;;;21.31;91.36
71105;BME280;58760;48.716;8.962;2023-08-12T06:57:10;96658.28;;;21.36;88.85
71105;BME280;58760;48.716;8.962;2023-08-12T07:00:13;96666.16;;;21.38;89.86
71105;BME280;58760;48.716;8.962;2023-08-12T07:03:01;96660.63;;;21.33;90.18
71105;BME280;58760;48.716;8.962;2023-08-12T07:06:18;96663.09;;;21.34;87.77
71105;BME280;58760;48.716;8.962;2023-08-12T07:09:16;96658.41;;;21.42;87.44
71105;BME280;58760;48.716;8.962;2023-08-12T07:12:17;96659.31;;;21.47;85.08
71105;BME280;58760;48.716;8.962;2023-08-12T07:15:02;96657.22;;;21.49;84.83
71105;BME280;58760;48.716;8.962;2023-08-12T07:18:01;96655.31;;;21.61;85.02
71105;BME280;58760;48.716;8.962;2023-08-12T07:21:17;96656.28;;;21.83;84.04
71105;BME280;58760;48.716;8.962;2023-08-12T07:24:08;96656.94;;;22.02;82.17
71105;BME280;58760;48.716;8.962;2023-08-12T07:27:08;96651.34;;;22.20;80.57
71105;BME280;58760;48.716;8.962;2023-08-12T07:30:12;96643.53;;;22.52;79.25
71105;BME280;58760;48.716;8.962;2023-08-12T07:33:15;96645.50;;;22.73;77.87
71105;BME280;58760;48.716;8.962;2023-08-12T07:36:06;96634.78;;;22.95;74.46
71105;BME280;58760;48.716;8.962;2023-08-12T07:39:24;96644.59;;;23.01;73.94
71105;BME280;58760;48.716;8.962;2023-08-12T07:42:20;96641.88;;;23.18;70.72
71105;BME280;58760;48.716;8.962;2023-08-12T07:45:37;96645.50;;;23.45;68.65
71105;BME280;58760;48.716;8.962;2023-08-12T07:48:26;96650.56;;;23.58;69.17
71105;BME280;58760;48.716;8.962;2023-08-12T07:51:39;96658.81;;;23.68;67.91
71105;BME280;58760;48.716;8.962;2023-08-12T07:54:43;96648.97;;;23.84;67.74
71105;BME280;58760;48.716;8.962;2023-08-12T07:57:34;96653.41;;;24.12;66.72
71105;BME280;58760;48.716;8.962;2023-08-12T08:01:05;96650.00;;;24.26;65.34
71105;BME280;58760;48.716;8.962;2023-08-12T08:04:34;96646.63;;;24.41;64.98
71105;BME280;58760;48.716;8.962;2023-08-12T08:07:26;96643.41;;;24.44;65.55
71105;BME280;58760;48.716;8.962;2023-08-12T08:10:37;96630.88;;;24.38;64.89
71105;BME280;58760;48.716;8.962;2023-08-12T08:13:46;96628.50;;;24.46;64.95
71105;BME280;58760;48.716;8.962;2023-08-12T08:16:45;96634.09;;;24.67;64.14
71105;BME280;58760;48.716;8.962;2023-08-12T08:19:57;96631.69;;;24.70;64.01
71105;BME280;58760;48.716;8.962;2023-08-12T08:23:04;96629.28;;;24.74;63.83
71105;BME280;58760;48.716;8.962;2023-08-12T08:26:05;96627.03;;;24.66;64.70
71105;BME280;58760;48.716;8.962;2023-08-12T08:28:57;96638.38;;;24.58;64.94
71105;BME280;58760;48.716;8.962;2023-08-12T08:32:06;96639.63;;;24.45;64.05
71105;BME280;58760;48.716;8.962;2023-08-12T08:35:06;96649.50;;;24.29;65.26
71105;BME280;58760;48.716;8.962;2023-08-12T08:38:18;96649.03;;;24.37;65.19
71105;BME280;58760;48.716;8.962;2023-08-12T08:41:14;96648.34;;;24.52;66.35
71105;BME280;58760;48.716;8.962;2023-08-12T08:44:15;96643.00;;;24.62;66.31
71105;BME280;58760;48.716;8.962;2023-08-12T08:47:15;96636.53;;;24.68;66.70
71105;BME280;58760;48.716;8.962;2023-08-12T08:50:27;96642.78;;;24.69;66.57
71105;BME280;58760;48.716;8.962;2023-08-12T08:53:08;96640.06;;;24.95;67.24
71105;BME280;58760;48.716;8.962;2023-08-12T08:56:16;96634.47;;;25.17;64.07
71105;BME280;58760;48.716;8.962;2023-08-12T08:59:26;96629.75;;;25.44;65.21
71105;BME280;58760;48.716;8.962;2023-08-12T09:03:03;96641.88;;;25.79;62.26
71105;BME280;58760;48.716;8.962;2023-08-12T09:06:24;96629.72;;;26.01;61.35
71105;BME280;58760;48.716;8.962;2023-08-12T09:09:26;96640.19;;;26.30;59.49
71105;BME280;58760;48.716;8.962;2023-08-12T09:12:30;96630.16;;;26.66;59.07
71105;BME280;58760;48.716;8.962;2023-08-12T09:15:33;96625.53;;;26.81;58.60
71105;BME280;58760;48.716;8.962;2023-08-12T09:18:26;96627.44;;;27.01;58.90
71105;BME280;58760;48.716;8.962;2023-08-12T09:22:03;96623.81;;;27.36;56.76
71105;BME280;58760;48.716;8.962;2023-08-12T09:25:43;96635.75;;;27.65;55.70
71105;BME280;58760;48.716;8.962;2023-08-12T09:28:37;96630.56;;;27.64;55.63
71105;BME280;58760;48.716;8.962;2023-08-12T09:31:49;96629.22;;;27.56;55.89
71105;BME280;58760;48.716;8.962;2023-08-12T09:34:59;96623.53;;;27.47;56.53
71105;BME280;58760;48.716;8.962;2023-08-12T09:38:01;96615.91;;;27.34;56.78
71105;BME280;58760;48.716;8.962;2023-08-12T09:41:11;96605.06;;;27.14;57.43
71105;BME280;58760;48.716;8.962;2023-08-12T09:44:16;96614.59;;;27.07;57.07
71105;BME280;58760;48.716;8.962;2023-08-12T09:47:09;96616.00;;;26.89;57.00
71105;BME280;58760;48.716;8.962;2023-08-12T09:53:36;96624.97;;;26.59;63.62
71105;BME280;58760;48.716;8.962;2023-08-12T09:56:48;96620.88;;;26.62;62.18
71105;BME280;58760;48.716;8.962;2023-08-12T10:00:08;96615.41;;;26.77;60.76
71105;BME280;58760;48.716;8.962;2023-08-12T10:03:07;96607.53;;;26.95;60.53
71105;BME280;58760;48.716;8.962;2023-08-12T10:05:57;96598.25;;;27.07;59.02
71105;BME280;58760;48.716;8.962;2023-08-12T10:08:56;96595.78;;;27.10;57.79
71105;BME280;58760;48.716;8.962;2023-08-12T10:11:48;96595.78;;;27.15;57.31
71105;BME280;58760;48.716;8.962;2023-08-12T10:14:41;96601.78;;;27.17;56.38
71105;BME280;58760;48.716;8.962;2023-08-12T10:17:44;96604.25;;;27.14;56.52
71105;BME280;58760;48.716;8.962;2023-08-12T10:20:32;96603.94;;;27.30;55.71
71105;BME280;58760;48.716;8.962;2023-08-12T10:23:43;96605.84;;;27.30;53.85
71105;BME280;58760;48.716;8.962;2023-08-12T10:26:43;96605.81;;;27.35;55.35
71105;BME280;58760;48.716;8.962;2023-08-12T10:29:29;96595.13;;;27.59;54.86
71105;BME280;58760;48.716;8.962;2023-08-12T10:32:27;96598.38;;;27.61;54.55
71105;BME280;58760;48.716;8.962;2023-08-12T10:35:46;96594.84;;;27.65;54.59
71105;BME280;58760;48.716;8.962;2023-08-12T10:38:41;96600.59;;;27.59;54.26
71105;BME280;58760;48.716;8.962;2023-08-12T10:41:35;96604.56;;;27.81;54.25
71105;BME280;58760;48.716;8.962;2023-08-12T10:44:51;96595.66;;;28.20;51.77
71105;BME280;58760;48.716;8.962;2023-08-12T10:48:09;96592.75;;;28.45;51.82
71105;BME280;58760;48.716;8.962;2023-08-12T10:55:35;96597.59;;;28.53;48.34
71105;BME280;58760;48.716;8.962;2023-08-12T11:02:32;96598.91;;;28.61;49.49
71105;BME280;58760;48.716;8.962;2023-08-12T11:05:48;96601.91;;;28.64;49.91
71105;BME280;58760;48.716;8.962;2023-08-12T11:09:07;96605.22;;;28.56;51.71
71105;BME280;58760;48.716;8.962;2023-08-12T11:12:42;96604.38;;;28.22;55.44
71105;BME280;58760;48.716;8.962;2023-08-12T11:16:07;96596.53;;;28.10;53.77
71105;BME280;58760;48.716;8.962;2023-08-12T11:19:15;96591.50;;;28.27;52.94
71105;BME280;58760;48.716;8.962;2023-08-12T11:23:16;96577.63;;;28.58;51.22
71105;BME280;58760;48.716;8.962;2023-08-12T11:26:28;96577.34;;;28.59;51.98
71105;BME280;58760;48.716;8.962;2023-08-12T11:29:20;96565.66;;;28.53;52.36
71105;BME280;58760;48.716;8.962;2023-08-12T11:32:30;96561.19;;;28.68;52.33
71105;BME280;58760;48.716;8.962;2023-08-12T11:35:32;96560.69;;;29.18;50.57
71105;BME280;58760;48.716;8.962;2023-08-12T11:38:31;96564.50;;;29.17;49.93
71105;BME280;58760;48.716;8.962;2023-08-12T11:41:25;96569.75;;;28.85;50.42
71105;BME280;58760;48.716;8.962;2023-08-12T11:44:22;96559.50;;;28.72;51.05
71105;BME280;58760;48.716;8.962;2023-08-12T11:47:13;96558.19;;;29.22;50.38
71105;BME280;58760;48.716;8.962;2023-08-12T11:50:35;96543.84;;;29.77;48.59
71105;BME280;58760;48.716;8.962;2023-08-12T11:53:38;96553.75;;;29.49;48.77
71105;BME280;58760;48.716;8.962;2023-08-12T11:56:31;96563.50;;;29.08;51.00
71105;BME280;58760;48.716;8.962;2023-08-12T11:59:39;96567.59;;;28.82;51.25
71105;BME280;58760;48.716;8.962;2023-08-12T12:02:44;96603.75;;;28.35;54.28
71105;BME280;58760;48.716;8.962;2023-08-12T12:09:28;96676.84;;;22.69;100.00
71105;BME280;58760;48.716;8.962;2023-08-12T12:12:17;96700.66;;;22.11;100.00
71105;BME280;58760;48.716;8.962;2023-08-12T12:15:16;96690.50;;;21.78;100.00
71105;BME280;58760;48.716;8.962;2023-08-12T12:18:46;96680.09;;;20.88;100.00
71105;BME280;58760;48.716;8.962;2023-08-12T12:22:14;96675.06;;;20.92;100.00
71105;BME280;58760;48.716;8.962;2023-08-12T12:25:42;96677.31;;;20.83;100.00
71105;BME280;58760;48.716;8.962;2023-08-12T12:28:57;96679.41;;;20.70;100.00
71105;BME280;58760;48.716;8.962;2023-08-12T12:32:12;96677.63;;;20.75;100.00
71105;BME280;58760;48.716;8.962;2023-08-12T12:35:46;96686.91;;;20.79;100.00
71105;BME280;58760;48.716;8.962;2023-08-12T12:38:45;96704.03;;;20.73;100.00
71105;BME280;58760;48.716;8.962;2023-08-12T12:41:55;96716.34;;;20.81;100.00
71105;BME280;58760;48.716;8.962;2023-08-12T12:44:48;96704.38;;;20.88;100.00
71105;BME280;58760;48.716;8.962;2023-08-12T12:47:44;96709.56;;;20.90;100.00
71105;BME280;58760;48.716;8.962;2023-08-12T12:50:47;96706.44;;;21.28;100.00
71105;BME280;58760;48.716;8.962;2023-08-12T12:53:51;96726.84;;;21.47;100.00
71105;BME280;58760;48.716;8.962;2023-08-12T12:56:38;96719.31;;;21.61;100.00
71105;BME280;58760;48.716;8.962;2023-08-12T12:59:28;96722.63;;;21.51;100.00
71105;BME280;58760;48.716;8.962;2023-08-12T13:02:36;96724.63;;;21.32;100.00
71105;BME280;58760;48.716;8.962;2023-08-12T13:05:55;96720.41;;;21.25;100.00
71105;BME280;58760;48.716;8.962;2023-08-12T13:09:00;96718.28;;;21.38;100.00
71105;BME280;58760;48.716;8.962;2023-08-12T13:11:49;96717.66;;;21.60;100.00
71105;BME280;58760;48.716;8.962;2023-08-12T13:14:37;96719.50;;;21.82;100.00
71105;BME280;58760;48.716;8.962;2023-08-12T13:17:29;96719.50;;;21.82;100.00
71105;BME280;58760;48.716;8.962;2023-08-12T13:20:46;96718.28;;;22.02;100.00
71105;BME280;58760;48.716;8.962;2023-08-12T13:23:37;96717.59;;;22.06;100.00
71105;BME280;58760;48.716;8.962;2023-08-12T13:26:36;96718.81;;;22.27;100.00
71105;BME280;58760;48.716;8.962;2023-08-12T13:29:38;96717.88;;;22.50;100.00
71105;BME280;58760;48.716;8.962;2023-08-12T13:32:39;96717.88;;;23.11;100.00
71105;BME280;58760;48.716;8.962;2023-08-12T13:39:25;96697.69;;;24.22;100.00
71105;BME280;58760;48.716;8.962;2023-08-12T13:42:31;96700.28;;;24.34;100.00
71105;BME280;58760;48.716;8.962;2023-08-12T13:45:46;96699.09;;;24.25;100.00
71105;BME280;58760;48.716;8.962;2023-08-12T13:48:54;96683.38;;;24.27;100.00
71105;BME280;58760;48.716;8.962;2023-08-12T13:51:48;96684.31;;;24.64;100.00
71105;BME280;58760;48.716;8.962;2023-08-12T13:54:40;96677.56;;;24.98;100.00
71105;BME280;58760;48.716;8.962;2023-08-12T13:58:00;96664.94;;;25.66;100.00
71105;BME280;58760;48.716;8.962;2023-08-12T14:01:39;96650.59;;;26.88;100.00
71105;BME280;58760;48.716;8.962;2023-08-12T14:04:45;96639.16;;;26.81;86.33
71105;BME280;58760;48.716;8.962;2023-08-12T14:07:41;96614.06;;;26.44;99.62
71105;BME280;58760;48.716;8.962;2023-08-12T14:11:13;96605.34;;;27.02;95.29
71105;BME280;58760;48.716;8.962;2023-08-12T14:14:14;96600.53;;;28.28;68.90
71105;BME280;58760;48.716;8.962;2023-08-12T14:17:07;96591.63;;;29.42;64.73
71105;BME280;58760;48.716;8.962;2023-08-12T14:20:29;96588.44;;;29.78;62.86
71105;BME280;58760;48.716;8.962;2023-08-12T14:23:27;96589.78;;;29.56;60.08
71105;BME280;58760;48.716;8.962;2023-08-12T14:26:26;96599.50;;;29.68;60.22
71105;BME280;58760;48.716;8.962;2023-08-12T14:29:17;96604.78;;;29.88;59.42
71105;BME280;58760;48.716;8.962;2023-08-12T14:32:10;96607.03;;;30.42;60.30
71105;BME280;58760;48.716;8.962;2023-08-12T14:35:48;96583.84;;;31.18;56.46
71105;BME280;58760;48.716;8.962;2023-08-12T14:38:50;96566.94;;;31.70;54.73
71105;BME280;58760;48.716;8.962;2023-08-12T14:41:45;96547.47;;;31.39;53.67
71105;BME280;58760;48.716;8.962;2023-08-12T14:44:36;96537.94;;;31.23;52.28
71105;BME280;58760;48.716;8.962;2023-08-12T14:47:47;96545.94;;;31.06;55.09
71105;BME280;58760;48.716;8.962;2023-08-12T14:51:01;96548.56;;;32.06;50.15
71105;BME280;58760;48.716;8.962;2023-08-12T14:54:16;96558.72;;;32.42;48.74
71105;BME280;58760;48.716;8.962;2023-08-12T14:57:16;96567.47;;;32.44;48.71
71105;BME280;58760;48.716;8.962;2023-08-12T15:00:18;96546.63;;;33.09;47.92
71105;BME280;58760;48.716;8.962;2023-08-12T15:03:05;96534.91;;;33.35;48.41
71105;BME280;58760;48.716;8.962;2023-08-12T15:06:06;96532.78;;;33.80;47.79
71105;BME280;58760;48.716;8.962;2023-08-12T15:09:04;96529.34;;;32.06;47.00
71105;BME280;58760;48.716;8.962;2023-08-12T15:12:02;96542.38;;;30.59;53.76
71105;BME280;58760;48.716;8.962;2023-08-12T15:15:07;96538.84;;;31.32;49.88
71105;BME280;58760;48.716;8.962;2023-08-12T15:17:57;96546.97;;;32.28;47.00
71105;BME280;58760;48.716;8.962;2023-08-12T15:21:10;96555.25;;;30.59;51.29
71105;BME280;58760;48.716;8.962;2023-08-12T15:23:57;96552.91;;;29.54;56.21
71105;BME280;58760;48.716;8.962;2023-08-12T15:27:05;96551.59;;;28.70;59.06
71105;BME280;58760;48.716;8.962;2023-08-12T15:30:16;96574.94;;;28.14;59.45
71105;BME280;58760;48.716;8.962;2023-08-12T15:36:51;96597.13;;;27.23;62.48
71105;BME280;58760;48.716;8.962;2023-08-12T15:40:05;96572.94;;;27.01;64.54
71105;BME280;58760;48.716;8.962;2023-08-12T15:42:57;96572.69;;;26.72;65.42
71105;BME280;58760;48.716;8.962;2023-08-12T15:46:22;96580.56;;;26.38;66.19
71105;BME280;58760;48.716;8.962;2023-08-12T15:49:37;96584.66;;;26.41;67.48
71105;BME280;58760;48.716;8.962;2023-08-12T15:52:45;96600.44;;;26.29;69.12
71105;BME280;58760;48.716;8.962;2023-08-12T15:55:46;96616.63;;;25.78;83.43
71105;BME280;58760;48.716;8.962;2023-08-12T15:58:49;96636.47;;;24.05;100.00
71105;BME280;58760;48.716;8.962;2023-08-12T16:01:49;96644.78;;;23.33;100.00
71105;BME280;58760;48.716;8.962;2023-08-12T16:05:05;96653.59;;;22.57;100.00
71105;BME280;58760;48.716;8.962;2023-08-12T16:07:54;96650.38;;;22.26;100.00
71105;BME280;58760;48.716;8.962;2023-08-12T16:11:10;96656.38;;;22.00;100.00
71105;BME280;58760;48.716;8.962;2023-08-12T16:14:08;96680.97;;;21.87;100.00
71105;BME280;58760;48.716;8.962;2023-08-12T16:17:13;96690.16;;;21.74;100.00
71105;BME280;58760;48.716;8.962;2023-08-12T16:20:17;96660.56;;;21.68;100.00
71105;BME280;58760;48.716;8.962;2023-08-12T16:23:05;96670.31;;;21.69;100.00
71105;BME280;58760;48.716;8.962;2023-08-12T16:26:28;96680.31;;;21.68;100.00
71105;BME280;58760;48.716;8.962;2023-08-12T16:29:20;96693.69;;;21.63;100.00
71105;BME280;58760;48.716;8.962;2023-08-12T16:32:08;96687.47;;;21.63;100.00
71105;BME280;58760;48.716;8.962;2023-08-12T16:35:09;96692.66;;;21.64;100.00
71105;BME280;58760;48.716;8.962;2023-08-12T16:38:15;96697.44;;;21.62;100.00
71105;BME280;58760;48.716;8.962;2023-08-12T16:41:13;96729.88;;;21.62;100.00
71105;BME280;58760;48.716;8.962;2023-08-12T16:44:34;96721.19;;;21.60;100.00
71105;BME280;58760;48.716;8.962;2023-08-12T16:47:26;96712.72;;;21.57;100.00
71105;BME280;58760;48.716;8.962;2023-08-12T16:50:14;96708.97;;;21.58;100.00
71105;BME280;58760;48.716;8.962;2023-08-12T16:53:04;96705.47;;;21.57;100.00
71105;BME280;58760;48.716;8.962;2023-08-12T16:56:05;96704.75;;;21.62;100.00
71105;BME280;58760;48.716;8.962;2023-08-12T16:59:08;96714.34;;;21.69;100.00
71105;BME280;58760;48.716;8.962;2023-08-12T17:01:57;96698.59;;;21.78;100.00
71105;BME280;58760;48.716;8.962;2023-08-12T17:05:01;96702.56;;;21.99;100.00
71105;BME280;58760;48.716;8.962;2023-08-12T17:07:58;96695.31;;;22.16;100.00
71105;BME280;58760;48.716;8.962;2023-08-12T17:10:55;96700.38;;;22.24;100.00
71105;BME280;58760;48.716;8.962;2023-08-12T17:14:03;96703.28;;;22.22;100.00
71105;BME280;58760;48.716;8.962;2023-08-12T17:17:04;96705.66;;;22.19;100.00
71105;BME280;58760;48.716;8.962;2023-08-12T17:20:19;96707.13;;;21.98;100.00
71105;BME280;58760;48.716;8.962;2023-08-12T17:23:16;96700.78;;;22.04;100.00
71105;BME280;58760;48.716;8.962;2023-08-12T17:26:33;96702.06;;;22.02;100.00
71105;BME280;58760;48.716;8.962;2023-08-12T17:29:19;96701.16;;;21.96;100.00
71105;BME280;58760;48.716;8.962;2023-08-12T17:32:23;96710.78;;;22.04;100.00
71105;BME280;58760;48.716;8.962;2023-08-12T17:39:01;96715.09;;;22.05;100.00
71105;BME280;58760;48.716;8.962;2023-08-12T17:42:40;96704.25;;;22.16;100.00
71105;BME280;58760;48.716;8.962;2023-08-12T17:46:20;96698.22;;;21.98;100.00
71105;BME280;58760;48.716;8.962;2023-08-12T17:49:29;96709.03;;;21.98;100.00
71105;BME280;58760;48.716;8.962;2023-08-12T17:52:17;96700.59;;;21.94;100.00
71105;BME280;58760;48.716;8.962;2023-08-12T17:59:13;96710.34;;;21.83;100.00
71105;BME280;58760;48.716;8.962;2023-08-12T18:02:12;96717.53;;;21.78;100.00
71105;BME280;58760;48.716;8.962;2023-08-12T18:08:44;96705.53;;;21.74;100.00
71105;BME280;58760;48.716;8.962;2023-08-12T18:12:00;96709.44;;;21.66;100.00
71105;BME280;58760;48.716;8.962;2023-08-12T18:14:56;96715.31;;;21.63;100.00
71105;BME280;58760;48.716;8.962;2023-08-12T18:17:46;96711.78;;;21.74;100.00
71105;BME280;58760;48.716;8.962;2023-08-12T18:20:56;96714.97;;;21.71;100.00
71105;BME280;58760;48.716;8.962;2023-08-12T18:23:47;96716.00;;;21.70;100.00
71105;BME280;58760;48.716;8.962;2023-08-12T18:27:11;96718.63;;;21.65;100.00
71105;BME280;58760;48.716;8.962;2023-08-12T18:30:44;96724.72;;;21.61;100.00
71105;BME280;58760;48.716;8.962;2023-08-12T18:33:40;96736.81;;;21.58;100.00
71105;BME280;58760;48.716;8.962;2023-08-12T18:36:46;96744.22;;;21.51;100.00
71105;BME280;58760;48.716;8.962;2023-08-12T18:39:48;96749.06;;;21.49;100.00
71105;BME280;58760;48.716;8.962;2023-08-12T18:42:39;96747.41;;;21.48;100.00